Time;durP1;ratioP1;P1;durP2;ratioP2;P2;SDS_P1;SDS_P2;PMS_P1;PMS_P2;Temp;Humidity;BMP_temperature;BMP_pressure;BME280_temperature;BME280_humidity;BME280_pressure;Samples;Min_cycle;Max_cycle;Signal;HPM_P1;HPM_P2
2024/01/26 00:04:02;;;;;;;2.90;1.60;;;;;;;;;;10476865;28;20150;-80
2024/01/26 00:09:15;;;;;;;3.67;2.13;;;;;;;;;;10482428;28;20072;-80
2024/01/26 00:14:23;;;;;;;3.33;2.07;;;;;;;;;;10462125;28;20127;-81
2024/01/26 00:19:35;;;;;;;4.45;2.38;;;;;;;;;;10479733;28;20056;-81
2024/01/26 00:24:41;;;;;;;4.50;2.15;;;;;;;;;;10480013;28;20045;-81
2024/01/26 00:30:06;;;;;;;;;;;;;;;;;;10483784;28;20141;-79
2024/01/26 00:35:26;;;;;;;5.90;2.17;;;;;;;;;;10454635;28;19930;-80
2024/01/26 00:40:34;;;;;;;3.90;2.13;;;;;;;;;;10457757;28;20189;-81
2024/01/26 00:45:39;;;;;;;5.43;2.20;;;;;;;;;;10467420;28;21856;-80
2024/01/26 00:51:01;;;;;;;5.32;2.55;;;;;;;;;;10460493;28;20059;-80
2024/01/26 00:56:20;;;;;;;2.75;1.90;;;;;;;;;;10484236;28;20546;-80
2024/01/26 01:01:31;;;;;;;5.05;2.40;;;;;;;;;;10460061;28;20032;-80
2024/01/26 01:06:39;;;;;;;6.10;2.75;;;;;;;;;;10446342;28;20335;-80
2024/01/26 01:22:33;;;;;;;4.43;2.40;;;;;;;;;;10476352;28;20060;-79
2024/01/26 01:27:54;;;;;;;3.25;1.95;;;;;;;;;;10457108;28;20059;-79
2024/01/26 01:33:04;;;;;;;4.28;2.13;;;;;;;;;;10457368;28;20052;-79
2024/01/26 01:38:17;;;;;;;3.42;2.05;;;;;;;;;;10456189;28;20076;-79
2024/01/26 01:43:27;;;;;;;4.40;2.30;;;;;;;;;;10459817;28;20159;-80
2024/01/26 01:48:32;;;;;;;4.93;2.15;;;;;;;;;;10468850;28;20062;-80
2024/01/26 01:53:40;;;;;;;6.15;2.05;;;;;;;;;;10486705;28;20099;-80
2024/01/26 01:58:47;;;;;;;3.42;1.75;;;;;;;;;;10482651;28;20875;-80
2024/01/26 02:04:02;;;;;;;3.10;1.48;;;;;;;;;;10464110;28;20048;-79
2024/01/26 02:09:17;;;;;;;3.22;1.65;;;;;;;;;;10466639;28;20051;-79
2024/01/26 02:14:21;;;;;;;2.95;1.88;;;;;;;;;;10465254;28;20097;-79
2024/01/26 02:19:36;;;;;;;3.55;1.55;;;;;;;;;;10486100;28;21845;-79
2024/01/26 02:24:47;;;;;;;3.03;1.90;;;;;;;;;;10488221;28;20153;-79
2024/01/26 02:29:52;;;;;;;6.07;2.50;;;;;;;;;;10470179;28;20052;-79
2024/01/26 02:35:07;;;;;;;4.35;2.03;;;;;;;;;;10478234;28;20048;-79
2024/01/26 02:40:22;;;;;;;5.10;2.25;;;;;;;;;;10483942;28;20045;-79
2024/01/26 02:45:29;;;;;;;6.20;2.60;;;;;;;;;;10455932;28;20348;-79
2024/01/26 02:50:33;;;;;;;7.15;2.95;;;;;;;;;;10485156;28;20044;-79
2024/01/26 02:55:51;;;;;;;4.72;1.80;;;;;;;;;;10482151;28;20774;-78
2024/01/26 03:00:59;;;;;;;5.55;2.30;;;;;;;;;;10477031;28;20040;-80
2024/01/26 03:06:11;;;;;;;5.53;2.28;;;;;;;;;;10467689;28;20439;-78
2024/01/26 03:11:20;;;;;;;6.07;2.40;;;;;;;;;;10478991;28;20083;-80
2024/01/26 03:16:34;;;;;;;2.50;1.25;;;;;;;;;;10480412;28;20056;-79
2024/01/26 03:21:50;;;;;;;3.80;1.85;;;;;;;;;;10462036;28;20037;-79
2024/01/26 03:26:58;;;;;;;7.55;3.33;;;;;;;;;;10485190;28;20127;-80
2024/01/26 03:32:03;;;;;;;7.60;2.85;;;;;;;;;;10476768;28;20464;-81
2024/01/26 03:37:22;;;;;;;4.68;2.10;;;;;;;;;;10491831;28;20131;-79
2024/01/26 03:47:58;;;;;;;6.80;2.35;;;;;;;;;;10458027;28;20134;-81
2024/01/26 03:53:02;;;;;;;4.50;2.03;;;;;;;;;;10483725;28;20120;-80
2024/01/26 03:58:16;;;;;;;7.10;3.10;;;;;;;;;;10482059;28;20468;-79
2024/01/26 04:03:22;;;;;;;4.50;1.95;;;;;;;;;;10464324;28;20041;-81
2024/01/26 04:08:33;;;;;;;3.20;1.55;;;;;;;;;;10488035;28;20410;-80
2024/01/26 04:13:44;;;;;;;5.22;2.50;;;;;;;;;;10463537;28;20047;-81
2024/01/26 04:18:52;;;;;;;5.28;2.60;;;;;;;;;;10479925;28;20070;-80
2024/01/26 04:23:59;;;;;;;6.97;3.03;;;;;;;;;;10477808;28;20591;-81
2024/01/26 04:29:17;;;;;;;5.60;2.40;;;;;;;;;;10461505;28;20083;-82
2024/01/26 04:34:34;;;;;;;4.53;1.80;;;;;;;;;;10459696;28;20048;-81
2024/01/26 04:39:50;;;;;;;5.93;3.00;;;;;;;;;;10474894;28;20072;-81
2024/01/26 04:44:58;;;;;;;6.40;2.85;;;;;;;;;;10454461;28;20337;-81
2024/01/26 04:50:02;;;;;;;7.00;2.92;;;;;;;;;;10484950;28;20425;-81
2024/01/26 04:55:10;;;;;;;4.63;1.85;;;;;;;;;;10479908;28;20050;-81
2024/01/26 05:00:18;;;;;;;6.28;2.22;;;;;;;;;;10456177;28;20437;-81
2024/01/26 05:05:22;;;;;;;7.80;3.05;;;;;;;;;;10445916;28;20091;-81
2024/01/26 05:10:27;;;;;;;5.65;2.78;;;;;;;;;;10484559;28;20040;-80
2024/01/26 05:15:41;;;;;;;6.35;2.42;;;;;;;;;;10453959;28;20568;-80
2024/01/26 05:20:47;;;;;;;8.23;3.67;;;;;;;;;;10457624;28;20051;-82
2024/01/26 05:25:53;;;;;;;4.15;2.08;;;;;;;;;;10483290;28;20044;-82
2024/01/26 05:31:09;;;;;;;4.55;2.33;;;;;;;;;;10458052;28;20075;-82
2024/01/26 05:36:24;;;;;;;4.95;2.40;;;;;;;;;;10479784;28;20048;-80
2024/01/26 05:41:30;;;;;;;4.15;2.20;;;;;;;;;;10457626;28;20036;-80
2024/01/26 05:46:39;;;;;;;3.95;2.17;;;;;;;;;;10459022;28;20390;-81
2024/01/26 05:51:57;;;;;;;4.80;2.42;;;;;;;;;;10479017;28;20149;-82
2024/01/26 05:57:06;;;;;;;4.50;2.55;;;;;;;;;;10456521;28;20132;-82
2024/01/26 06:07:34;;;;;;;2.95;1.70;;;;;;;;;;10476190;28;20372;-82
2024/01/26 06:12:40;;;;;;;3.10;2.00;;;;;;;;;;10459703;28;20449;-80
2024/01/26 06:17:54;;;;;;;1.75;1.15;;;;;;;;;;10444655;28;20147;-81
2024/01/26 06:22:57;;;;;;;1.43;0.60;;;;;;;;;;10459216;28;20082;-80
2024/01/26 06:28:02;;;;;;;3.15;1.20;;;;;;;;;;10481486;28;20048;-79
2024/01/26 06:33:14;;;;;;;2.28;1.00;;;;;;;;;;10464178;28;20507;-79
2024/01/26 06:38:19;;;;;;;0.57;0.57;;;;;;;;;;10482695;28;20469;-80
2024/01/26 06:43:30;;;;;;;3.05;1.23;;;;;;;;;;10466994;28;20076;-79
2024/01/26 06:48:48;;;;;;;3.17;1.02;;;;;;;;;;10496347;28;20071;-82
2024/01/26 06:53:55;;;;;;;2.15;1.27;;;;;;;;;;10492446;28;20127;-79
2024/01/26 06:59:10;;;;;;;1.92;0.55;;;;;;;;;;10491375;28;20193;-80
2024/01/26 07:04:17;;;;;;;1.92;0.82;;;;;;;;;;10472779;28;20549;-80
2024/01/26 07:09:23;;;;;;;2.53;1.38;;;;;;;;;;10456998;28;20154;-80
2024/01/26 07:14:31;;;;;;;1.45;0.88;;;;;;;;;;10459792;28;20043;-78
2024/01/26 07:19:36;;;;;;;2.08;1.27;;;;;;;;;;10474874;28;20076;-80
2024/01/26 07:24:39;;;;;;;1.05;0.80;;;;;;;;;;10479823;28;20600;-81
2024/01/26 07:29:47;;;;;;;3.03;0.80;;;;;;;;;;10477288;28;20059;-81
2024/01/26 07:34:52;;;;;;;5.55;1.30;;;;;;;;;;10476694;28;20108;-80
2024/01/26 07:39:56;;;;;;;1.85;1.00;;;;;;;;;;10475460;28;20055;-81
2024/01/26 07:45:02;;;;;;;0.85;0.63;;;;;;;;;;10455417;28;20048;-80
2024/01/26 07:50:12;;;;;;;1.13;0.80;;;;;;;;;;10452201;28;20048;-81
2024/01/26 07:55:26;;;;;;;1.48;0.60;;;;;;;;;;10442815;28;20036;-81
2024/01/26 08:00:34;;;;;;;0.90;0.68;;;;;;;;;;10460690;28;20196;-80
2024/01/26 08:05:47;;;;;;;3.53;0.75;;;;;;;;;;10456797;28;20583;-81
2024/01/26 08:11:03;;;;;;;1.83;0.90;;;;;;;;;;10476431;28;20040;-80
2024/01/26 08:16:15;;;;;;;1.70;0.77;;;;;;;;;;10470558;28;20040;-80
2024/01/26 08:21:28;;;;;;;2.78;1.02;;;;;;;;;;10472821;28;20577;-80
2024/01/26 08:26:34;;;;;;;1.10;0.90;;;;;;;;;;10472952;28;20048;-81
2024/01/26 08:31:38;;;;;;;1.15;0.60;;;;;;;;;;10453906;28;20436;-81
2024/01/26 08:36:43;;;;;;;;;;;;;;;;;;10478045;28;20426;-80
2024/01/26 08:41:51;;;;;;;4.75;0.82;;;;;;;;;;10478641;28;20019;-81
2024/01/26 08:46:56;;;;;;;0.77;0.40;;;;;;;;;;10459936;28;20055;-81
2024/01/26 08:52:05;;;;;;;3.17;0.90;;;;;;;;;;10455764;28;20493;-81
2024/01/26 08:57:13;;;;;;;0.25;0.25;;;;;;;;;;10474669;28;20052;-82
2024/01/26 09:02:21;;;;;;;0.63;0.50;;;;;;;;;;10474631;28;20194;-82
2024/01/26 09:07:24;;;;;;;;;;;;;;;;;;10483860;28;20131;-82
2024/01/26 09:12:33;;;;;;;0.75;0.55;;;;;;;;;;10471986;28;19982;-82
2024/01/26 09:17:43;;;;;;;1.13;0.40;;;;;;;;;;10444624;28;20494;-82
2024/01/26 09:22:51;;;;;;;1.67;0.60;;;;;;;;;;10457453;28;20052;-82
2024/01/26 09:28:03;;;;;;;2.85;0.63;;;;;;;;;;10474577;28;20065;-82
2024/01/26 09:33:10;;;;;;;2.47;0.50;;;;;;;;;;10459221;28;20036;-81
2024/01/26 09:38:18;;;;;;;0.88;0.52;;;;;;;;;;10448658;28;20048;-82
2024/01/26 09:43:28;;;;;;;1.38;0.30;;;;;;;;;;10461881;28;20498;-82
2024/01/26 09:48:33;;;;;;;1.00;0.50;;;;;;;;;;10455880;28;20037;-82
2024/01/26 09:53:38;;;;;;;0.70;0.60;;;;;;;;;;10478172;28;20040;-81
2024/01/26 09:58:47;;;;;;;1.90;0.68;;;;;;;;;;10478045;28;20052;-82
2024/01/26 10:03:56;;;;;;;0.38;0.38;;;;;;;;;;10468152;28;20037;-82
2024/01/26 10:09:12;;;;;;;0.60;0.60;;;;;;;;;;10495811;28;20347;-82
2024/01/26 10:14:23;;;;;;;1.42;0.60;;;;;;;;;;10502218;28;20044;-83
2024/01/26 10:19:27;;;;;;;0.82;0.60;;;;;;;;;;10457989;28;20097;-82
2024/01/26 10:24:36;;;;;;;2.88;0.70;;;;;;;;;;10467923;28;20500;-81
2024/01/26 10:29:45;;;;;;;0.88;0.68;;;;;;;;;;10483828;28;20039;-82
2024/01/26 10:40:16;;;;;;;0.65;0.60;;;;;;;;;;10484741;28;20061;-82
2024/01/26 10:45:24;;;;;;;4.00;0.85;;;;;;;;;;10482551;28;20510;-82
2024/01/26 10:50:35;;;;;;;1.05;0.70;;;;;;;;;;10492123;28;20094;-82
2024/01/26 10:55:52;;;;;;;1.17;1.08;;;;;;;;;;10488328;28;20225;-81
2024/01/26 11:01:13;;;;;;;1.40;0.77;;;;;;;;;;10487820;28;20041;-81
2024/01/26 11:06:20;;;;;;;1.20;0.60;;;;;;;;;;10516442;28;20060;-83
2024/01/26 11:11:32;;;;;;;1.45;0.77;;;;;;;;;;10504809;28;20163;-81
2024/01/26 11:16:49;;;;;;;1.15;0.85;;;;;;;;;;10461048;28;20048;-81
2024/01/26 11:22:01;;;;;;;0.95;0.65;;;;;;;;;;10501403;28;20106;-80
2024/01/26 11:27:15;;;;;;;1.35;0.70;;;;;;;;;;10507189;28;20037;-78
2024/01/26 11:32:29;;;;;;;1.05;0.50;;;;;;;;;;10485791;28;20040;-85
2024/01/26 11:37:48;;;;;;;3.58;0.95;;;;;;;;;;10492402;28;20063;-84
2024/01/26 11:43:01;;;;;;;0.85;0.70;;;;;;;;;;10490225;28;20045;-83
2024/01/26 11:48:18;;;;;;;1.23;1.13;;;;;;;;;;10510475;28;20051;-82
2024/01/26 11:53:30;;;;;;;2.42;0.73;;;;;;;;;;10492964;28;20044;-83
2024/01/26 11:58:38;;;;;;;0.50;0.40;;;;;;;;;;10514985;28;20045;-82
2024/01/26 12:03:42;;;;;;;0.85;0.82;;;;;;;;;;10504992;28;20049;-81
2024/01/26 12:08:55;;;;;;;1.10;0.88;;;;;;;;;;10497718;28;20131;-82
2024/01/26 12:14:04;;;;;;;0.80;0.68;;;;;;;;;;10503464;28;20052;-81
2024/01/26 12:19:10;;;;;;;0.80;0.60;;;;;;;;;;10506408;28;20068;-82
2024/01/26 12:29:43;;;;;;;1.50;0.80;;;;;;;;;;10494137;28;20044;-82
2024/01/26 12:34:48;;;;;;;1.60;0.90;;;;;;;;;;10499671;28;20037;-82
2024/01/26 12:40:00;;;;;;;1.35;0.75;;;;;;;;;;10481847;28;20081;-82
2024/01/26 12:45:10;;;;;;;1.37;0.90;;;;;;;;;;10488722;28;20493;-81
2024/01/26 12:50:19;;;;;;;1.83;1.00;;;;;;;;;;10465766;28;20048;-83
2024/01/26 12:55:42;;;;;;;0.88;0.70;;;;;;;;;;10474280;28;20213;-82
2024/01/26 13:00:49;;;;;;;1.13;0.60;;;;;;;;;;10483920;28;20047;-83
2024/01/26 13:06:03;;;;;;;1.02;0.75;;;;;;;;;;10486317;28;20108;-83
2024/01/26 13:11:11;;;;;;;1.75;0.93;;;;;;;;;;10465970;28;20041;-82
2024/01/26 13:16:15;;;;;;;1.92;0.90;;;;;;;;;;10486911;28;20028;-83
2024/01/26 13:21:21;;;;;;;1.75;0.70;;;;;;;;;;10471621;28;20041;-83
2024/01/26 13:26:27;;;;;;;2.00;0.93;;;;;;;;;;10471933;28;20590;-82
2024/01/26 13:31:38;;;;;;;0.80;0.80;;;;;;;;;;10471620;28;20042;-82
2024/01/26 13:36:49;;;;;;;2.28;0.80;;;;;;;;;;10490204;28;20049;-82
2024/01/26 13:42:00;;;;;;;1.98;1.00;;;;;;;;;;10496555;28;20112;-82
2024/01/26 13:47:09;;;;;;;1.48;0.80;;;;;;;;;;10478533;28;20447;-82
2024/01/26 13:52:17;;;;;;;1.77;1.10;;;;;;;;;;10493464;28;20128;-81
2024/01/26 13:57:28;;;;;;;1.30;0.85;;;;;;;;;;10498642;28;20040;-81
2024/01/26 14:02:33;;;;;;;2.03;0.93;;;;;;;;;;10490213;28;20056;-80
2024/01/26 14:07:41;;;;;;;2.90;1.20;;;;;;;;;;10495042;28;20072;-81
2024/01/26 14:12:48;;;;;;;2.88;1.42;;;;;;;;;;10490106;28;20131;-81
2024/01/26 14:17:58;;;;;;;1.52;0.90;;;;;;;;;;10498210;28;20097;-82
2024/01/26 14:23:04;;;;;;;2.00;1.02;;;;;;;;;;10494733;28;20551;-81
2024/01/26 14:28:14;;;;;;;1.48;1.08;;;;;;;;;;10481964;28;20037;-80
2024/01/26 14:33:22;;;;;;;6.38;1.35;;;;;;;;;;10493121;28;20036;-81
2024/01/26 14:38:32;;;;;;;3.03;1.92;;;;;;;;;;10465404;28;20121;-80
2024/01/26 14:43:39;;;;;;;2.47;1.67;;;;;;;;;;10465276;28;20048;-79
2024/01/26 14:48:45;;;;;;;3.17;1.27;;;;;;;;;;10483708;28;20509;-80
2024/01/26 14:53:50;;;;;;;3.47;1.63;;;;;;;;;;10487521;28;20056;-80
2024/01/26 14:58:55;;;;;;;3.17;1.27;;;;;;;;;;10487049;28;20048;-80
2024/01/26 15:04:05;;;;;;;1.75;1.13;;;;;;;;;;10486055;28;20048;-79
2024/01/26 15:09:15;;;;;;;2.97;1.13;;;;;;;;;;10485525;28;20037;-81
2024/01/26 15:14:22;;;;;;;2.75;1.35;;;;;;;;;;10482899;28;20401;-81
2024/01/26 15:19:29;;;;;;;1.80;0.80;;;;;;;;;;10453281;28;20037;-81
2024/01/26 15:24:43;;;;;;;2.58;1.42;;;;;;;;;;10469538;28;20058;-81
2024/01/26 15:30:05;;;;;;;3.55;1.08;;;;;;;;;;10482285;28;20486;-81
2024/01/26 15:35:14;;;;;;;2.72;1.10;;;;;;;;;;10482329;28;20040;-80
2024/01/26 15:40:20;;;;;;;5.40;1.80;;;;;;;;;;10467804;28;20578;-80
2024/01/26 15:51:06;;;;;;;1.20;1.00;;;;;;;;;;10486769;28;20185;-79
2024/01/26 15:56:17;;;;;;;2.03;1.20;;;;;;;;;;10454949;28;20289;-79
2024/01/26 16:01:25;;;;;;;2.95;1.38;;;;;;;;;;10483384;28;20051;-79
2024/01/26 16:06:36;;;;;;;3.65;1.40;;;;;;;;;;10481777;28;20262;-78
2024/01/26 16:11:40;;;;;;;1.63;1.10;;;;;;;;;;10483220;28;20628;-79
2024/01/26 16:16:46;;;;;;;2.50;1.40;;;;;;;;;;10474328;28;20123;-79
2024/01/26 16:21:57;;;;;;;2.20;1.05;;;;;;;;;;10491255;28;20036;-78
2024/01/26 16:27:06;;;;;;;1.73;1.10;;;;;;;;;;10492810;28;20052;-79
2024/01/26 16:32:16;;;;;;;1.88;0.88;;;;;;;;;;10474866;28;20067;-77
2024/01/26 16:37:19;;;;;;;2.45;1.30;;;;;;;;;;10495739;28;20071;-78
2024/01/26 16:42:34;;;;;;;1.75;0.90;;;;;;;;;;10464776;28;20054;-77
2024/01/26 16:47:40;;;;;;;3.60;1.23;;;;;;;;;;10494696;28;20075;-80
2024/01/26 16:52:47;;;;;;;2.25;1.08;;;;;;;;;;10490582;28;20048;-79
2024/01/26 16:57:57;;;;;;;1.67;1.23;;;;;;;;;;10492447;28;20117;-79
2024/01/26 17:08:30;;;;;;;0.55;0.52;;;;;;;;;;10492373;28;20124;-80
2024/01/26 17:13:40;;;;;;;1.60;0.95;;;;;;;;;;10466659;28;21528;-80
2024/01/26 17:18:45;;;;;;;1.42;1.00;;;;;;;;;;10471314;28;20073;-80
2024/01/26 17:23:58;;;;;;;1.55;1.20;;;;;;;;;;10477093;28;20395;-79
2024/01/26 17:29:02;;;;;;;2.13;1.27;;;;;;;;;;10452328;28;20063;-79
2024/01/26 17:34:11;;;;;;;1.35;0.93;;;;;;;;;;10488851;28;20036;-80
2024/01/26 17:39:19;;;;;;;1.52;0.82;;;;;;;;;;10466714;28;20043;-79
2024/01/26 17:44:28;;;;;;;2.58;1.27;;;;;;;;;;10477402;28;20057;-80
2024/01/26 17:50:04;;;;;;;1.85;1.15;;;;;;;;;;10478725;28;20058;-79
2024/01/26 17:55:10;;;;;;;1.77;1.08;;;;;;;;;;10481126;28;20151;-79
2024/01/26 18:00:14;;;;;;;1.97;1.13;;;;;;;;;;10477397;28;20533;-79
2024/01/26 18:05:28;;;;;;;1.55;1.05;;;;;;;;;;10462612;28;20898;-79
2024/01/26 18:10:44;;;;;;;1.25;1.00;;;;;;;;;;10461203;28;20482;-79
2024/01/26 18:16:02;;;;;;;1.25;1.08;;;;;;;;;;10474265;28;20165;-79
2024/01/26 18:21:08;;;;;;;2.65;1.30;;;;;;;;;;10483318;28;20052;-78
2024/01/26 18:26:22;;;;;;;1.75;1.25;;;;;;;;;;10481608;28;20473;-80
2024/01/26 18:31:25;;;;;;;1.20;0.90;;;;;;;;;;10493315;28;20048;-79
2024/01/26 18:36:38;;;;;;;3.40;1.27;;;;;;;;;;10488374;28;20385;-79
2024/01/26 18:41:44;;;;;;;2.67;1.02;;;;;;;;;;10498512;28;20132;-79
2024/01/26 18:52:26;;;;;;;1.55;1.00;;;;;;;;;;10491954;28;20064;-79
2024/01/26 18:57:31;;;;;;;2.83;0.95;;;;;;;;;;10487430;28;20110;-78
2024/01/26 19:02:36;;;;;;;2.97;1.17;;;;;;;;;;10469978;28;20041;-77
2024/01/26 19:07:44;;;;;;;2.30;1.02;;;;;;;;;;10484319;28;20202;-79
2024/01/26 19:12:52;;;;;;;2.08;1.20;;;;;;;;;;10486110;28;20525;-78
2024/01/26 19:17:57;;;;;;;1.17;0.75;;;;;;;;;;10488289;28;20182;-79
2024/01/26 19:23:05;;;;;;;0.63;0.63;;;;;;;;;;10470341;28;20040;-79
2024/01/26 19:28:12;;;;;;;2.28;0.90;;;;;;;;;;10486351;28;20510;-79
2024/01/26 19:33:25;;;;;;;0.88;0.60;;;;;;;;;;10480620;28;20128;-79
2024/01/26 19:38:40;;;;;;;0.45;0.45;;;;;;;;;;10463538;28;20054;-80
2024/01/26 19:43:48;;;;;;;0.70;0.70;;;;;;;;;;10464195;28;20206;-80
2024/01/26 19:48:53;;;;;;;1.67;0.55;;;;;;;;;;10488446;28;20493;-80
2024/01/26 19:54:06;;;;;;;2.92;0.70;;;;;;;;;;10454422;28;20133;-80
2024/01/26 19:59:17;;;;;;;1.35;0.80;;;;;;;;;;10472183;28;20132;-78
2024/01/26 20:04:23;;;;;;;2.08;0.70;;;;;;;;;;10480323;28;20067;-79
2024/01/26 20:09:34;;;;;;;3.70;0.70;;;;;;;;;;10490088;28;20044;-79
2024/01/26 20:14:53;;;;;;;0.50;0.50;;;;;;;;;;10469847;28;20093;-80
2024/01/26 20:20:03;;;;;;;2.70;1.13;;;;;;;;;;10484787;28;20036;-81
2024/01/26 20:25:21;;;;;;;1.77;0.77;;;;;;;;;;10493962;28;20511;-80
2024/01/26 20:30:28;;;;;;;2.13;1.25;;;;;;;;;;10493545;28;20053;-79
2024/01/26 20:35:40;;;;;;;3.95;0.80;;;;;;;;;;10493046;28;20048;-81
2024/01/26 20:40:50;;;;;;;4.75;1.58;;;;;;;;;;10502633;28;20055;-80
2024/01/26 20:46:31;;;;;;;1.45;0.95;;;;;;;;;;10508498;28;20046;-80
2024/01/26 20:51:38;;;;;;;2.55;0.98;;;;;;;;;;10491833;28;20032;-79
2024/01/26 20:56:45;;;;;;;3.13;0.85;;;;;;;;;;10492612;28;20449;-80
2024/01/26 21:01:49;;;;;;;2.17;0.93;;;;;;;;;;10510972;28;20624;-80
2024/01/26 21:06:55;;;;;;;1.08;0.77;;;;;;;;;;10505178;28;20120;-79
2024/01/26 21:12:04;;;;;;;3.58;1.60;;;;;;;;;;10490556;28;20130;-80
2024/01/26 21:17:13;;;;;;;3.53;1.15;;;;;;;;;;10490030;28;20075;-79
2024/01/26 21:22:16;;;;;;;3.53;1.00;;;;;;;;;;10512423;28;20044;-79
2024/01/26 21:32:51;;;;;;;1.10;0.73;;;;;;;;;;10510414;28;20055;-77
2024/01/26 21:37:59;;;;;;;2.15;0.88;;;;;;;;;;10519666;28;20047;-79
2024/01/26 21:43:05;;;;;;;2.13;0.77;;;;;;;;;;10518032;28;20059;-79
2024/01/26 21:48:11;;;;;;;3.22;0.85;;;;;;;;;;10506320;28;20029;-81
2024/01/26 21:53:15;;;;;;;3.85;1.00;;;;;;;;;;10510205;28;20029;-80
2024/01/26 21:58:29;;;;;;;2.60;0.90;;;;;;;;;;10500400;28;20055;-79
2024/01/26 22:03:35;;;;;;;4.88;0.90;;;;;;;;;;10525352;28;20032;-80
2024/01/26 22:08:42;;;;;;;1.80;1.15;;;;;;;;;;10521033;28;20155;-80
2024/01/26 22:13:58;;;;;;;7.72;2.00;;;;;;;;;;10520353;28;20041;-78
2024/01/26 22:19:05;;;;;;;4.90;0.80;;;;;;;;;;10489016;28;20054;-78
2024/01/26 22:24:12;;;;;;;2.50;0.90;;;;;;;;;;10523368;28;20032;-79
2024/01/26 22:35:12;;;;;;;2.47;1.00;;;;;;;;;;10526407;28;20737;-80
2024/01/26 22:40:25;;;;;;;1.63;0.90;;;;;;;;;;10510171;28;20060;-78
2024/01/26 22:45:31;;;;;;;3.97;1.00;;;;;;;;;;10517000;28;20068;-75
2024/01/26 22:50:43;;;;;;;1.38;0.82;;;;;;;;;;10541640;28;20047;-78
2024/01/26 22:56:14;;;;;;;1.08;0.90;;;;;;;;;;10498566;28;20048;-80
2024/01/26 23:01:20;;;;;;;0.50;0.50;;;;;;;;;;10498037;28;20041;-80
2024/01/26 23:06:31;;;;;;;2.45;0.80;;;;;;;;;;10510073;28;20148;-79
2024/01/26 23:11:38;;;;;;;12.20;4.32;;;;;;;;;;10481366;28;20139;-80
2024/01/26 23:16:43;;;;;;;2.63;0.75;;;;;;;;;;10500909;28;20536;-79
2024/01/26 23:21:48;;;;;;;2.00;0.63;;;;;;;;;;10497688;28;20442;-80
2024/01/26 23:26:55;;;;;;;1.05;0.38;;;;;;;;;;10491455;28;20482;-79
2024/01/26 23:31:59;;;;;;;;;;;;;;;;;;10486917;28;20044;-80
2024/01/26 23:37:15;;;;;;;4.65;1.20;;;;;;;;;;10472861;28;19920;-80
2024/01/26 23:42:26;;;;;;;2.80;1.00;;;;;;;;;;10474054;28;20063;-80
2024/01/26 23:47:33;;;;;;;1.67;1.05;;;;;;;;;;10492010;28;20423;-80
2024/01/26 23:52:45;;;;;;;3.88;0.82;;;;;;;;;;10457239;28;20047;-79
2024/01/26 23:58:00;;;;;;;0.32;0.32;;;;;;;;;;10494228;28;20048;-80
